Time;durP1;ratioP1;P1;durP2;ratioP2;P2;SDS_P1;SDS_P2;PMS_P1;PMS_P2;Temp;Humidity;BMP_temperature;BMP_pressure;BME280_temperature;BME280_humidity;BME280_pressure;Samples;Min_cycle;Max_cycle;Signal;HPM_P1;HPM_P2
2022/11/25 00:01:37;;;;;;;5.73;2.73;;;;;;;;;;4986995;28;20498;-45
2022/11/25 00:04:03;;;;;;;8.90;2.60;;;;;;;;;;4982509;28;20474;-46
2022/11/25 00:06:30;;;;;;;12.03;2.70;;;;;;;;;;4986432;28;20779;-46
2022/11/25 00:08:57;;;;;;;6.53;2.93;;;;;;;;;;4986594;28;20922;-45
2022/11/25 00:11:24;;;;;;;11.40;3.00;;;;;;;;;;4984225;28;20429;-45
2022/11/25 00:13:50;;;;;;;9.60;3.90;;;;;;;;;;4984634;28;20461;-45
2022/11/25 00:16:17;;;;;;;11.70;3.23;;;;;;;;;;4984339;28;20436;-46
2022/11/25 00:18:47;;;;;;;13.40;2.60;;;;;;;;;;4985203;28;20424;-44
2022/11/25 00:21:14;;;;;;;7.57;2.90;;;;;;;;;;4984202;28;20476;-47
2022/11/25 00:23:40;;;;;;;7.37;3.00;;;;;;;;;;4990459;28;20474;-45
2022/11/25 00:26:06;;;;;;;10.90;2.97;;;;;;;;;;4985703;28;20432;-45
2022/11/25 00:28:32;;;;;;;18.60;3.10;;;;;;;;;;4982583;28;20839;-45
2022/11/25 00:31:08;;;;;;;15.23;3.70;;;;;;;;;;4984024;28;20501;-45
2022/11/25 00:33:34;;;;;;;9.33;3.07;;;;;;;;;;4985563;28;20412;-45
2022/11/25 00:36:01;;;;;;;10.50;3.10;;;;;;;;;;4987723;28;20492;-45
2022/11/25 00:38:27;;;;;;;7.33;2.80;;;;;;;;;;4985646;28;20429;-45
2022/11/25 00:44:34;;;;;;;9.70;2.50;;;;;;;;;;4987701;28;20467;-46
2022/11/25 00:46:24;;;;;;;7.30;3.10;;;;;;;;;;4984282;28;20493;-47
2022/11/25 00:48:50;;;;;;;15.83;3.77;;;;;;;;;;4983927;28;20420;-45
2022/11/25 00:51:16;;;;;;;10.93;3.20;;;;;;;;;;4991134;28;20414;-45
2022/11/25 00:53:41;;;;;;;15.63;3.17;;;;;;;;;;4983795;28;20434;-45
2022/11/25 00:56:16;;;;;;;5.03;2.80;;;;;;;;;;4983524;28;20442;-44
2022/11/25 00:58:43;;;;;;;6.20;2.60;;;;;;;;;;4984860;28;20415;-46
2022/11/25 01:01:09;;;;;;;10.73;3.00;;;;;;;;;;4983450;28;20542;-45
2022/11/25 01:03:38;;;;;;;8.70;3.13;;;;;;;;;;4986505;28;20511;-45
2022/11/25 01:06:05;;;;;;;8.27;2.73;;;;;;;;;;4987117;28;20432;-47
2022/11/25 01:08:32;;;;;;;7.23;3.10;;;;;;;;;;4988192;28;21057;-47
2022/11/25 01:11:01;;;;;;;7.07;3.23;;;;;;;;;;4982922;28;20942;-45
2022/11/25 01:13:27;;;;;;;14.90;3.47;;;;;;;;;;4980392;28;20457;-45
2022/11/25 01:15:53;;;;;;;6.97;2.90;;;;;;;;;;4986487;28;20966;-45
2022/11/25 01:18:19;;;;;;;14.20;3.33;;;;;;;;;;4985587;28;20423;-45
2022/11/25 01:20:45;;;;;;;5.30;2.73;;;;;;;;;;4986175;28;20469;-46
2022/11/25 01:23:11;;;;;;;10.57;2.90;;;;;;;;;;4985064;28;20791;-46
2022/11/25 01:25:38;;;;;;;5.87;2.63;;;;;;;;;;4984371;28;20527;-46
2022/11/25 01:28:04;;;;;;;6.90;2.70;;;;;;;;;;4981463;28;20822;-45
2022/11/25 01:30:30;;;;;;;7.00;2.60;;;;;;;;;;4985706;28;20450;-46
2022/11/25 01:32:56;;;;;;;11.57;3.03;;;;;;;;;;4981737;28;20475;-45
2022/11/25 01:35:22;;;;;;;16.53;2.97;;;;;;;;;;4982572;28;20440;-46
2022/11/25 01:37:48;;;;;;;10.10;2.87;;;;;;;;;;4985380;28;20414;-45
2022/11/25 01:40:14;;;;;;;12.73;2.90;;;;;;;;;;4982590;28;20408;-46
2022/11/25 01:42:45;;;;;;;5.27;2.50;;;;;;;;;;4981028;28;20474;-45
2022/11/25 01:45:23;;;;;;;12.47;3.23;;;;;;;;;;4987708;28;20481;-46
2022/11/25 01:47:56;;;;;;;9.47;3.50;;;;;;;;;;4987672;28;20411;-45
2022/11/25 01:50:24;;;;;;;7.80;3.27;;;;;;;;;;4986100;28;20414;-47
2022/11/25 01:52:54;;;;;;;11.67;3.13;;;;;;;;;;4973046;28;20416;-45
2022/11/25 01:55:21;;;;;;;10.60;3.70;;;;;;;;;;4979979;28;20442;-45
2022/11/25 01:57:50;;;;;;;8.60;3.77;;;;;;;;;;4985531;28;20757;-47
2022/11/25 02:00:16;;;;;;;13.80;3.37;;;;;;;;;;4982099;28;20427;-46
2022/11/25 02:02:42;;;;;;;10.37;3.30;;;;;;;;;;4983988;28;20463;-44
2022/11/25 02:05:10;;;;;;;6.87;3.30;;;;;;;;;;4983256;28;20474;-45
2022/11/25 02:07:37;;;;;;;11.67;3.30;;;;;;;;;;4982389;28;20438;-44
2022/11/25 02:10:05;;;;;;;16.47;3.90;;;;;;;;;;4984558;28;20920;-44
2022/11/25 02:12:31;;;;;;;16.57;3.47;;;;;;;;;;4980716;28;20443;-44
2022/11/25 02:14:58;;;;;;;8.20;4.00;;;;;;;;;;4984419;28;20528;-44
2022/11/25 02:17:25;;;;;;;15.43;3.40;;;;;;;;;;4981222;28;20417;-44
2022/11/25 02:19:59;;;;;;;15.67;3.87;;;;;;;;;;4984072;28;20416;-44
2022/11/25 02:22:46;;;;;;;6.50;3.03;;;;;;;;;;4981363;28;20458;-44
2022/11/25 02:25:12;;;;;;;6.57;2.83;;;;;;;;;;4955660;28;20443;-45
2022/11/25 02:27:38;;;;;;;16.13;3.87;;;;;;;;;;4982974;28;20417;-44
2022/11/25 02:30:04;;;;;;;8.93;2.70;;;;;;;;;;4985419;28;20918;-44
2022/11/25 02:32:30;;;;;;;11.03;3.80;;;;;;;;;;4984357;28;20426;-44
2022/11/25 02:34:55;;;;;;;6.03;2.63;;;;;;;;;;4984232;28;20414;-43
2022/11/25 02:37:23;;;;;;;6.63;2.83;;;;;;;;;;4978242;28;20419;-44
2022/11/25 02:39:49;;;;;;;6.97;2.57;;;;;;;;;;4984197;28;20411;-45
2022/11/25 02:42:17;;;;;;;11.70;3.27;;;;;;;;;;4983814;28;20874;-45
2022/11/25 02:44:43;;;;;;;9.80;3.17;;;;;;;;;;4983307;28;20409;-44
2022/11/25 02:47:09;;;;;;;11.00;3.47;;;;;;;;;;4983024;28;20527;-44
2022/11/25 02:49:35;;;;;;;6.37;2.47;;;;;;;;;;4983900;28;20421;-44
2022/11/25 02:52:01;;;;;;;6.90;2.90;;;;;;;;;;4980046;28;20425;-44
2022/11/25 02:54:27;;;;;;;6.10;2.87;;;;;;;;;;4990610;28;20453;-44
2022/11/25 02:56:53;;;;;;;7.03;2.70;;;;;;;;;;4983744;28;20799;-43
2022/11/25 02:59:19;;;;;;;9.60;2.80;;;;;;;;;;4983694;28;20478;-43
2022/11/25 03:01:45;;;;;;;6.10;2.63;;;;;;;;;;4983881;28;20464;-43
2022/11/25 03:04:11;;;;;;;10.03;3.20;;;;;;;;;;4980852;28;20412;-43
2022/11/25 03:06:37;;;;;;;4.20;3.00;;;;;;;;;;4982059;28;20485;-43
2022/11/25 03:09:03;;;;;;;21.40;4.47;;;;;;;;;;4977922;28;20431;-43
2022/11/25 03:14:14;;;;;;;7.47;3.30;;;;;;;;;;4979615;28;20418;-42
2022/11/25 03:16:40;;;;;;;12.70;3.57;;;;;;;;;;4979011;28;20439;-43
2022/11/25 03:19:07;;;;;;;14.37;3.00;;;;;;;;;;4980044;28;20503;-42
2022/11/25 03:21:33;;;;;;;5.77;2.77;;;;;;;;;;4980673;28;20550;-43
2022/11/25 03:23:59;;;;;;;5.93;2.80;;;;;;;;;;4979941;28;20406;-43
2022/11/25 03:26:25;;;;;;;9.30;2.50;;;;;;;;;;4985950;28;20448;-43
2022/11/25 03:28:51;;;;;;;9.23;3.20;;;;;;;;;;4985501;28;20509;-43
2022/11/25 03:31:17;;;;;;;9.13;2.80;;;;;;;;;;4988210;28;20511;-43
2022/11/25 03:33:43;;;;;;;7.73;2.70;;;;;;;;;;4980631;28;20904;-43
2022/11/25 03:36:09;;;;;;;13.77;3.30;;;;;;;;;;4981716;28;20986;-44
2022/11/25 03:38:35;;;;;;;8.50;3.03;;;;;;;;;;4985626;28;20991;-43
2022/11/25 03:41:01;;;;;;;6.50;4.30;;;;;;;;;;4987613;28;20580;-42
2022/11/25 03:43:27;;;;;;;8.80;2.70;;;;;;;;;;4981591;28;20459;-42
2022/11/25 03:45:53;;;;;;;8.37;2.83;;;;;;;;;;4986939;28;20420;-43
2022/11/25 03:48:19;;;;;;;6.07;2.80;;;;;;;;;;4979672;28;20495;-43
2022/11/25 03:50:45;;;;;;;13.60;3.93;;;;;;;;;;4986706;28;20408;-43
2022/11/25 03:53:11;;;;;;;11.10;2.90;;;;;;;;;;4983260;28;20416;-43
2022/11/25 03:55:37;;;;;;;4.27;2.70;;;;;;;;;;4985239;28;20451;-43
2022/11/25 03:58:02;;;;;;;12.97;3.53;;;;;;;;;;4984503;28;20897;-45
2022/11/25 04:00:29;;;;;;;4.93;2.80;;;;;;;;;;4984411;28;20907;-42
2022/11/25 04:02:55;;;;;;;7.87;3.10;;;;;;;;;;4984863;28;20409;-43
2022/11/25 04:05:21;;;;;;;8.97;3.60;;;;;;;;;;4983343;28;20436;-43
2022/11/25 04:07:47;;;;;;;22.10;2.70;;;;;;;;;;4983978;28;20441;-44
2022/11/25 04:10:13;;;;;;;7.13;2.40;;;;;;;;;;4987150;28;20423;-45
2022/11/25 04:12:45;;;;;;;9.73;2.97;;;;;;;;;;4982555;28;20623;-43
2022/11/25 04:15:11;;;;;;;14.73;3.27;;;;;;;;;;4983770;28;20468;-43
2022/11/25 04:17:38;;;;;;;7.37;2.60;;;;;;;;;;4984083;28;20537;-43
2022/11/25 04:20:05;;;;;;;9.30;3.43;;;;;;;;;;4983428;28;20440;-45
2022/11/25 04:22:30;;;;;;;5.17;2.57;;;;;;;;;;4984316;28;20821;-43
2022/11/25 04:24:56;;;;;;;6.07;2.67;;;;;;;;;;4985932;28;20409;-44
2022/11/25 04:27:22;;;;;;;8.63;3.10;;;;;;;;;;4987081;28;20938;-43
2022/11/25 04:29:48;;;;;;;8.23;2.67;;;;;;;;;;4980391;28;20490;-43
2022/11/25 04:32:14;;;;;;;9.90;3.10;;;;;;;;;;4980508;28;20424;-43
2022/11/25 04:34:40;;;;;;;11.17;3.20;;;;;;;;;;4987671;28;20420;-43
2022/11/25 04:37:06;;;;;;;8.10;2.70;;;;;;;;;;4985787;28;20481;-43
2022/11/25 04:39:32;;;;;;;9.40;2.90;;;;;;;;;;4987702;28;20426;-44
2022/11/25 04:44:43;;;;;;;5.43;3.07;;;;;;;;;;4984917;28;20502;-42
2022/11/25 04:47:09;;;;;;;7.73;2.90;;;;;;;;;;4981428;28;20514;-42
2022/11/25 04:49:35;;;;;;;9.20;3.10;;;;;;;;;;4984815;28;20415;-42
2022/11/25 04:52:01;;;;;;;10.43;3.43;;;;;;;;;;4985141;28;20441;-43
2022/11/25 04:54:27;;;;;;;11.63;3.73;;;;;;;;;;4982013;28;20866;-43
2022/11/25 04:56:53;;;;;;;9.20;2.97;;;;;;;;;;4984376;28;20475;-43
2022/11/25 05:02:03;;;;;;;11.03;3.57;;;;;;;;;;4981757;28;20510;-43
2022/11/25 05:04:29;;;;;;;8.63;2.80;;;;;;;;;;4988606;28;20409;-44
2022/11/25 05:06:55;;;;;;;10.97;3.10;;;;;;;;;;4982916;28;20443;-42
2022/11/25 05:09:21;;;;;;;6.73;3.07;;;;;;;;;;4985905;28;20428;-43
2022/11/25 05:11:48;;;;;;;13.70;3.30;;;;;;;;;;4980007;28;20820;-43
2022/11/25 05:14:14;;;;;;;13.67;4.83;;;;;;;;;;4979957;28;20443;-44
2022/11/25 05:16:40;;;;;;;14.23;3.83;;;;;;;;;;4984370;28;20443;-43
2022/11/25 05:19:06;;;;;;;10.50;4.00;;;;;;;;;;4985343;28;20416;-42
2022/11/25 05:21:32;;;;;;;18.60;4.37;;;;;;;;;;4983415;28;20463;-43
2022/11/25 05:23:58;;;;;;;13.40;3.30;;;;;;;;;;4988590;28;20430;-43
2022/11/25 05:26:24;;;;;;;11.90;3.70;;;;;;;;;;4985649;28;20947;-43
2022/11/25 05:28:50;;;;;;;14.60;3.00;;;;;;;;;;4969999;28;20908;-43
2022/11/25 05:31:16;;;;;;;8.27;3.53;;;;;;;;;;4985839;28;20459;-43
2022/11/25 05:33:42;;;;;;;6.50;3.73;;;;;;;;;;4982716;28;20421;-44
2022/11/25 05:36:08;;;;;;;9.17;3.40;;;;;;;;;;4982946;28;20802;-45
2022/11/25 05:38:34;;;;;;;12.80;4.23;;;;;;;;;;4982535;28;20412;-45
2022/11/25 05:41:04;;;;;;;7.70;3.27;;;;;;;;;;4981296;28;20494;-44
2022/11/25 05:43:30;;;;;;;13.50;3.57;;;;;;;;;;4981001;28;20449;-46
2022/11/25 05:45:56;;;;;;;5.73;3.23;;;;;;;;;;4980942;28;20433;-45
2022/11/25 05:48:23;;;;;;;7.30;3.50;;;;;;;;;;4987169;28;20426;-43
2022/11/25 05:50:48;;;;;;;9.27;3.10;;;;;;;;;;4981300;28;20443;-45
2022/11/25 05:53:16;;;;;;;9.20;3.73;;;;;;;;;;4980991;28;20451;-43
2022/11/25 05:55:42;;;;;;;6.70;2.90;;;;;;;;;;4982295;28;20933;-43
2022/11/25 05:58:08;;;;;;;7.53;3.03;;;;;;;;;;4982103;28;20408;-43
2022/11/25 06:00:34;;;;;;;17.67;3.80;;;;;;;;;;4983335;28;20428;-42
2022/11/25 06:03:00;;;;;;;7.47;3.27;;;;;;;;;;4985862;28;20464;-43
2022/11/25 06:05:26;;;;;;;12.27;5.30;;;;;;;;;;4985446;28;20443;-44
2022/11/25 06:07:52;;;;;;;9.43;4.53;;;;;;;;;;4979727;28;20494;-44
2022/11/25 06:10:19;;;;;;;13.10;4.00;;;;;;;;;;4978764;28;20427;-44
2022/11/25 06:12:45;;;;;;;13.67;4.07;;;;;;;;;;4984522;28;20416;-43
2022/11/25 06:15:11;;;;;;;10.77;3.50;;;;;;;;;;4984102;28;20430;-43
2022/11/25 06:17:37;;;;;;;12.23;4.00;;;;;;;;;;4983486;28;20782;-42
2022/11/25 06:20:05;;;;;;;15.17;3.50;;;;;;;;;;4983714;28;20507;-43
2022/11/25 06:22:31;;;;;;;7.97;3.70;;;;;;;;;;4983811;28;20468;-45
2022/11/25 06:24:57;;;;;;;17.33;3.80;;;;;;;;;;4978318;28;20906;-43
2022/11/25 06:27:23;;;;;;;12.83;5.30;;;;;;;;;;4984970;28;20464;-42
2022/11/25 06:29:49;;;;;;;11.00;3.83;;;;;;;;;;4982273;28;20411;-44
2022/11/25 06:32:15;;;;;;;10.23;4.73;;;;;;;;;;4982180;28;20504;-42
2022/11/25 06:34:41;;;;;;;10.30;4.20;;;;;;;;;;4983974;28;20418;-44
2022/11/25 06:37:07;;;;;;;19.20;4.90;;;;;;;;;;4976111;28;20432;-43
2022/11/25 06:39:33;;;;;;;16.97;3.67;;;;;;;;;;4982410;28;20446;-44
2022/11/25 06:41:59;;;;;;;10.77;4.13;;;;;;;;;;4981797;28;20463;-43
2022/11/25 06:44:25;;;;;;;18.60;5.07;;;;;;;;;;4986941;28;20415;-44
2022/11/25 06:46:51;;;;;;;8.77;3.60;;;;;;;;;;4980834;28;20434;-44
2022/11/25 06:49:17;;;;;;;10.10;4.20;;;;;;;;;;4980116;28;20476;-44
2022/11/25 06:51:43;;;;;;;14.90;4.50;;;;;;;;;;4981988;28;20411;-45
2022/11/25 06:54:09;;;;;;;9.23;3.60;;;;;;;;;;4981416;28;20923;-45
2022/11/25 06:56:35;;;;;;;8.47;4.43;;;;;;;;;;4982620;28;20989;-43
2022/11/25 06:59:02;;;;;;;12.50;4.50;;;;;;;;;;4984956;28;20501;-48
2022/11/25 07:01:29;;;;;;;10.57;4.07;;;;;;;;;;4983876;28;20466;-43
2022/11/25 07:04:15;;;;;;;13.93;4.57;;;;;;;;;;4979631;28;20917;-44
2022/11/25 07:06:41;;;;;;;16.13;4.27;;;;;;;;;;4976789;28;20568;-43
2022/11/25 07:09:07;;;;;;;7.50;3.73;;;;;;;;;;4984455;28;20457;-44
2022/11/25 07:11:37;;;;;;;13.10;4.80;;;;;;;;;;4982033;28;20425;-43
2022/11/25 07:14:08;;;;;;;11.90;4.30;;;;;;;;;;4983225;28;20415;-43
2022/11/25 07:16:34;;;;;;;8.83;3.70;;;;;;;;;;4982031;28;20457;-43
2022/11/25 07:19:01;;;;;;;10.00;4.80;;;;;;;;;;4981859;28;20814;-44
2022/11/25 07:21:28;;;;;;;9.03;4.77;;;;;;;;;;4981813;28;20466;-43
2022/11/25 07:23:54;;;;;;;12.53;4.50;;;;;;;;;;4980878;28;20474;-44
2022/11/25 07:26:26;;;;;;;12.20;5.60;;;;;;;;;;4985705;28;20471;-43
2022/11/25 07:28:52;;;;;;;12.33;5.13;;;;;;;;;;4973034;28;20509;-43
2022/11/25 07:31:25;;;;;;;13.03;5.33;;;;;;;;;;4978756;28;20430;-44
2022/11/25 07:33:52;;;;;;;13.30;3.77;;;;;;;;;;4975696;28;20521;-44
2022/11/25 07:36:18;;;;;;;12.33;4.37;;;;;;;;;;4980152;28;20444;-45
2022/11/25 07:38:46;;;;;;;8.87;4.57;;;;;;;;;;4982395;28;20504;-44
2022/11/25 07:41:13;;;;;;;9.37;4.40;;;;;;;;;;4982403;28;20471;-45
2022/11/25 07:43:40;;;;;;;7.20;5.43;;;;;;;;;;4984638;28;20422;-45
2022/11/25 07:46:12;;;;;;;7.17;3.90;;;;;;;;;;4980028;28;21027;-44
2022/11/25 07:48:40;;;;;;;11.60;5.57;;;;;;;;;;4976724;28;20782;-44
2022/11/25 07:51:13;;;;;;;11.80;4.63;;;;;;;;;;4989195;28;20413;-43
2022/11/25 07:53:38;;;;;;;7.50;5.10;;;;;;;;;;4981491;28;20773;-43
2022/11/25 07:56:05;;;;;;;9.07;4.83;;;;;;;;;;4984368;28;20438;-44
2022/11/25 07:58:32;;;;;;;17.73;5.20;;;;;;;;;;4980307;28;20831;-45
2022/11/25 08:01:03;;;;;;;11.43;5.60;;;;;;;;;;4979285;28;20509;-47
2022/11/25 08:03:31;;;;;;;10.20;4.97;;;;;;;;;;4982769;28;20594;-44
2022/11/25 08:06:00;;;;;;;9.90;5.13;;;;;;;;;;4979492;28;20486;-44
2022/11/25 08:08:27;;;;;;;8.93;5.10;;;;;;;;;;4971701;28;20495;-47
2022/11/25 08:10:55;;;;;;;12.83;5.20;;;;;;;;;;4984444;28;20672;-44
2022/11/25 08:13:21;;;;;;;6.73;4.70;;;;;;;;;;4982077;28;20492;-43
2022/11/25 08:15:47;;;;;;;12.33;4.93;;;;;;;;;;4990099;28;20443;-44
2022/11/25 08:18:14;;;;;;;5.90;4.50;;;;;;;;;;4980652;28;20442;-44
2022/11/25 08:20:40;;;;;;;16.53;4.93;;;;;;;;;;4991183;28;20521;-45
2022/11/25 08:23:07;;;;;;;12.33;5.37;;;;;;;;;;4986361;28;20458;-45
2022/11/25 08:25:33;;;;;;;12.37;4.90;;;;;;;;;;4977843;28;20437;-45
2022/11/25 08:28:00;;;;;;;8.73;4.40;;;;;;;;;;4989787;28;20437;-45
2022/11/25 08:30:26;;;;;;;12.23;5.27;;;;;;;;;;4978667;28;20810;-45
2022/11/25 08:32:53;;;;;;;17.93;5.50;;;;;;;;;;4985892;28;20415;-45
2022/11/25 08:35:19;;;;;;;9.87;5.40;;;;;;;;;;4979221;28;20448;-44
2022/11/25 08:37:45;;;;;;;11.20;5.53;;;;;;;;;;4985333;28;20415;-45
2022/11/25 08:40:12;;;;;;;14.20;5.80;;;;;;;;;;4982698;28;20427;-45
2022/11/25 08:42:38;;;;;;;13.63;5.30;;;;;;;;;;4985356;28;20995;-45
2022/11/25 08:45:05;;;;;;;10.87;4.43;;;;;;;;;;4976569;28;20511;-45
2022/11/25 08:47:31;;;;;;;15.43;5.00;;;;;;;;;;4989914;28;21134;-45
2022/11/25 08:49:58;;;;;;;9.77;4.50;;;;;;;;;;4982257;28;20413;-45
2022/11/25 08:52:24;;;;;;;9.70;4.10;;;;;;;;;;4982571;28;20413;-45
2022/11/25 08:54:50;;;;;;;8.43;4.43;;;;;;;;;;4983572;28;20404;-44
2022/11/25 08:57:16;;;;;;;12.23;3.70;;;;;;;;;;4982511;28;20443;-45
2022/11/25 08:59:42;;;;;;;10.50;4.03;;;;;;;;;;4983232;28;20511;-44
2022/11/25 09:02:12;;;;;;;7.53;4.27;;;;;;;;;;4981727;28;20468;-44
2022/11/25 09:04:37;;;;;;;6.10;4.03;;;;;;;;;;4988503;28;20481;-44
2022/11/25 09:07:04;;;;;;;6.73;4.40;;;;;;;;;;4983565;28;20432;-44
2022/11/25 09:09:30;;;;;;;15.60;4.33;;;;;;;;;;4979961;28;20437;-45
2022/11/25 09:11:56;;;;;;;8.70;4.30;;;;;;;;;;4980969;28;20425;-44
2022/11/25 09:14:23;;;;;;;6.33;4.67;;;;;;;;;;4982287;28;20505;-45
2022/11/25 09:16:50;;;;;;;7.00;4.17;;;;;;;;;;4978783;28;20429;-45
2022/11/25 09:19:16;;;;;;;8.73;4.27;;;;;;;;;;4982347;28;20505;-45
2022/11/25 09:21:43;;;;;;;4.30;2.77;;;;;;;;;;4984713;28;20908;-45
2022/11/25 09:24:09;;;;;;;3.67;3.27;;;;;;;;;;4982670;28;20830;-45
2022/11/25 09:26:38;;;;;;;7.63;3.73;;;;;;;;;;4978190;28;20422;-45
2022/11/25 09:29:04;;;;;;;5.37;2.53;;;;;;;;;;4985059;28;20391;-45
2022/11/25 09:31:30;;;;;;;4.27;2.43;;;;;;;;;;4982822;28;20813;-45
2022/11/25 09:33:58;;;;;;;10.00;3.07;;;;;;;;;;4985235;28;20434;-45
2022/11/25 09:36:24;;;;;;;8.23;3.33;;;;;;;;;;4981989;28;20438;-45
2022/11/25 09:38:51;;;;;;;9.03;2.67;;;;;;;;;;4981501;28;20418;-45
2022/11/25 09:47:37;;;;;;;4.70;3.03;;;;;;;;;;4981090;28;20440;-45
2022/11/25 09:50:06;;;;;;;5.03;2.40;;;;;;;;;;4978767;28;20420;-45
2022/11/25 09:52:48;;;;;;;6.93;2.60;;;;;;;;;;4984364;28;20416;-45
2022/11/25 09:55:38;;;;;;;3.80;2.20;;;;;;;;;;4979757;28;20444;-45
2022/11/25 09:58:20;;;;;;;8.10;3.73;;;;;;;;;;4976871;28;20560;-44
2022/11/25 10:00:47;;;;;;;8.10;2.70;;;;;;;;;;4987384;28;20465;-45
2022/11/25 10:03:19;;;;;;;8.33;2.63;;;;;;;;;;4984962;28;20446;-45
2022/11/25 10:05:49;;;;;;;5.77;2.30;;;;;;;;;;4979472;28;20448;-45
2022/11/25 10:08:17;;;;;;;6.30;2.60;;;;;;;;;;4979076;28;20429;-45
2022/11/25 10:10:44;;;;;;;2.90;2.17;;;;;;;;;;4982126;28;20512;-45
2022/11/25 10:13:16;;;;;;;4.40;2.40;;;;;;;;;;4982029;28;20434;-45
2022/11/25 10:15:46;;;;;;;7.13;2.50;;;;;;;;;;4982296;28;20965;-45
2022/11/25 10:18:17;;;;;;;5.27;2.70;;;;;;;;;;4983023;28;20410;-45
2022/11/25 10:20:43;;;;;;;6.87;2.90;;;;;;;;;;4985011;28;20411;-45
2022/11/25 10:23:15;;;;;;;6.43;2.57;;;;;;;;;;4984202;28;20907;-45
2022/11/25 10:25:44;;;;;;;5.30;2.67;;;;;;;;;;4982779;28;20490;-45
2022/11/25 10:28:21;;;;;;;14.37;2.57;;;;;;;;;;4984648;28;20490;-45
2022/11/25 10:30:50;;;;;;;5.97;2.43;;;;;;;;;;4983902;28;20534;-45
2022/11/25 10:33:19;;;;;;;4.67;2.40;;;;;;;;;;4984916;28;20423;-44
2022/11/25 10:35:49;;;;;;;7.63;2.23;;;;;;;;;;4982176;28;20406;-45
2022/11/25 10:38:20;;;;;;;5.83;2.60;;;;;;;;;;4980653;28;20386;-45
2022/11/25 10:40:47;;;;;;;5.70;2.20;;;;;;;;;;4983353;28;20414;-45
2022/11/25 10:43:14;;;;;;;4.40;2.50;;;;;;;;;;4984224;28;20893;-44
2022/11/25 10:45:46;;;;;;;5.93;3.50;;;;;;;;;;4986954;28;20405;-44
2022/11/25 10:48:41;;;;;;;8.77;2.67;;;;;;;;;;4984265;28;20416;-45
2022/11/25 10:51:07;;;;;;;4.23;2.50;;;;;;;;;;4968964;28;20420;-44
2022/11/25 10:53:37;;;;;;;3.73;2.67;;;;;;;;;;4981983;28;20433;-45
2022/11/25 10:56:10;;;;;;;3.73;2.40;;;;;;;;;;4978768;28;20433;-44
2022/11/25 10:58:37;;;;;;;6.93;3.00;;;;;;;;;;4982137;28;20397;-45
2022/11/25 11:01:05;;;;;;;6.00;2.30;;;;;;;;;;4986254;28;20418;-45
2022/11/25 11:03:31;;;;;;;7.07;3.03;;;;;;;;;;4981520;28;20383;-45
2022/11/25 11:05:57;;;;;;;6.43;2.40;;;;;;;;;;4981037;28;20513;-45
2022/11/25 11:08:28;;;;;;;5.50;2.50;;;;;;;;;;4980137;28;20433;-45
2022/11/25 11:11:08;;;;;;;6.37;2.60;;;;;;;;;;4974425;28;20465;-45
2022/11/25 11:13:35;;;;;;;4.00;2.40;;;;;;;;;;4985036;28;20418;-45
2022/11/25 11:16:02;;;;;;;5.00;2.67;;;;;;;;;;4976758;28;20481;-45
2022/11/25 11:18:28;;;;;;;9.73;2.80;;;;;;;;;;4981077;28;20975;-45
2022/11/25 11:20:59;;;;;;;3.77;2.53;;;;;;;;;;4979631;28;20414;-45
2022/11/25 11:23:28;;;;;;;3.63;2.20;;;;;;;;;;4980468;28;20781;-45
2022/11/25 11:25:55;;;;;;;9.23;3.00;;;;;;;;;;4981315;28;20515;-44
2022/11/25 11:28:29;;;;;;;7.30;2.67;;;;;;;;;;4979748;28;20426;-45
2022/11/25 11:31:00;;;;;;;10.40;6.67;;;;;;;;;;4977733;28;20888;-44
2022/11/25 11:33:30;;;;;;;14.47;3.07;;;;;;;;;;4982144;28;20414;-45
2022/11/25 11:36:11;;;;;;;6.53;3.10;;;;;;;;;;4974502;28;20552;-44
2022/11/25 11:38:40;;;;;;;6.23;3.10;;;;;;;;;;4987011;28;20418;-45
2022/11/25 11:41:18;;;;;;;4.97;3.00;;;;;;;;;;4979760;28;20471;-44
2022/11/25 11:43:53;;;;;;;12.53;4.13;;;;;;;;;;4982991;28;20424;-45
2022/11/25 11:46:39;;;;;;;5.90;2.80;;;;;;;;;;4984772;28;20437;-46
2022/11/25 11:49:05;;;;;;;5.70;3.80;;;;;;;;;;4968397;28;20453;-47
2022/11/25 11:51:34;;;;;;;6.20;3.07;;;;;;;;;;4989404;28;20416;-46
2022/11/25 11:54:09;;;;;;;5.43;3.10;;;;;;;;;;4991988;28;20402;-46
2022/11/25 11:56:41;;;;;;;9.23;3.47;;;;;;;;;;4988134;28;20420;-46
2022/11/25 11:59:10;;;;;;;6.20;3.30;;;;;;;;;;4988712;28;20384;-47
2022/11/25 12:01:52;;;;;;;5.47;3.00;;;;;;;;;;4986978;28;20529;-45
2022/11/25 12:04:30;;;;;;;8.70;3.10;;;;;;;;;;4990729;28;20389;-47
2022/11/25 12:06:56;;;;;;;6.00;2.73;;;;;;;;;;4981416;28;20938;-47
2022/11/25 12:09:23;;;;;;;7.10;2.77;;;;;;;;;;4990242;28;20448;-46
2022/11/25 12:11:53;;;;;;;6.97;2.93;;;;;;;;;;4986917;28;20756;-48
2022/11/25 12:14:40;;;;;;;4.13;3.00;;;;;;;;;;4985195;28;20421;-47
2022/11/25 12:17:09;;;;;;;6.57;2.90;;;;;;;;;;4969126;28;20460;-47
2022/11/25 12:19:55;;;;;;;11.73;3.80;;;;;;;;;;4986568;28;20427;-45
2022/11/25 12:22:34;;;;;;;6.50;3.07;;;;;;;;;;4988867;28;20865;-46
2022/11/25 12:25:12;;;;;;;6.20;2.90;;;;;;;;;;4985393;28;20412;-47
2022/11/25 12:27:45;;;;;;;7.80;3.03;;;;;;;;;;4989087;28;20385;-45
2022/11/25 12:30:12;;;;;;;11.60;3.67;;;;;;;;;;4985867;28;20387;-45
2022/11/25 12:32:37;;;;;;;11.67;3.60;;;;;;;;;;4988782;28;20792;-46
2022/11/25 12:35:07;;;;;;;7.53;2.80;;;;;;;;;;4988069;28;20399;-46
2022/11/25 12:37:39;;;;;;;8.57;3.43;;;;;;;;;;4994085;28;20424;-46
2022/11/25 12:40:40;;;;;;;12.50;3.50;;;;;;;;;;4987874;28;20415;-45
2022/11/25 12:43:12;;;;;;;6.87;2.90;;;;;;;;;;4949248;28;20571;-46
2022/11/25 12:45:39;;;;;;;10.23;3.23;;;;;;;;;;4973353;28;20448;-46
2022/11/25 12:48:05;;;;;;;7.63;2.87;;;;;;;;;;4974459;28;20479;-46
2022/11/25 12:50:47;;;;;;;14.43;3.30;;;;;;;;;;4982329;28;20446;-46
2022/11/25 12:53:33;;;;;;;9.80;3.00;;;;;;;;;;4972548;28;20523;-47
2022/11/25 12:56:03;;;;;;;25.63;4.00;;;;;;;;;;4972791;28;20480;-46
2022/11/25 12:58:40;;;;;;;4.43;2.80;;;;;;;;;;4967525;28;20444;-46
2022/11/25 13:01:25;;;;;;;7.57;3.20;;;;;;;;;;4976487;28;20405;-46
2022/11/25 13:04:12;;;;;;;4.23;2.83;;;;;;;;;;4963006;28;20440;-47
2022/11/25 13:06:44;;;;;;;4.57;2.80;;;;;;;;;;4977732;28;20423;-45
2022/11/25 13:09:28;;;;;;;5.70;2.90;;;;;;;;;;4972874;28;20406;-45
2022/11/25 13:12:12;;;;;;;9.17;4.13;;;;;;;;;;4979326;28;20772;-46
2022/11/25 13:15:01;;;;;;;12.20;3.00;;;;;;;;;;4969309;28;20395;-44
2022/11/25 13:17:28;;;;;;;11.80;3.20;;;;;;;;;;4977414;28;20774;-45
2022/11/25 13:20:13;;;;;;;6.40;2.93;;;;;;;;;;4977675;28;20448;-44
2022/11/25 13:22:40;;;;;;;15.50;4.00;;;;;;;;;;4970690;28;20582;-45
2022/11/25 13:25:21;;;;;;;8.10;3.30;;;;;;;;;;4973310;28;20410;-45
2022/11/25 13:27:47;;;;;;;7.23;2.90;;;;;;;;;;4985400;28;20892;-45
2022/11/25 13:30:31;;;;;;;10.47;3.07;;;;;;;;;;4971548;28;20430;-45
2022/11/25 13:32:58;;;;;;;8.43;3.20;;;;;;;;;;4971289;28;20417;-45
2022/11/25 13:35:24;;;;;;;10.30;3.13;;;;;;;;;;4965978;28;20937;-44
2022/11/25 13:37:50;;;;;;;5.57;2.97;;;;;;;;;;4982233;28;20416;-44
2022/11/25 13:40:25;;;;;;;5.73;2.87;;;;;;;;;;4983985;28;20426;-44
2022/11/25 13:42:54;;;;;;;11.37;3.30;;;;;;;;;;4973850;28;20473;-45
2022/11/25 13:45:27;;;;;;;4.80;3.13;;;;;;;;;;4974305;28;20434;-45
2022/11/25 13:47:56;;;;;;;7.03;3.17;;;;;;;;;;4974287;28;20409;-46
2022/11/25 13:50:23;;;;;;;7.90;2.77;;;;;;;;;;4986972;28;20497;-45
2022/11/25 13:52:59;;;;;;;11.07;3.07;;;;;;;;;;4969640;28;20428;-44
2022/11/25 13:55:31;;;;;;;11.23;3.50;;;;;;;;;;4972333;28;20533;-44
2022/11/25 13:58:18;;;;;;;5.40;2.73;;;;;;;;;;4978045;28;20420;-44
2022/11/25 14:01:04;;;;;;;8.90;3.93;;;;;;;;;;4981397;28;20516;-44
2022/11/25 14:03:30;;;;;;;7.67;3.30;;;;;;;;;;4974616;28;20428;-43
2022/11/25 14:06:22;;;;;;;13.07;3.80;;;;;;;;;;4977117;28;20433;-44
2022/11/25 14:09:00;;;;;;;11.50;3.33;;;;;;;;;;4970802;28;20434;-44
2022/11/25 14:11:38;;;;;;;9.80;3.17;;;;;;;;;;4970007;28;20546;-47
2022/11/25 14:14:07;;;;;;;6.30;3.30;;;;;;;;;;4967793;28;20934;-44
2022/11/25 14:16:51;;;;;;;8.87;3.00;;;;;;;;;;4971039;28;20466;-44
2022/11/25 14:19:36;;;;;;;7.03;3.50;;;;;;;;;;4971890;28;20497;-45
2022/11/25 14:22:21;;;;;;;7.77;3.17;;;;;;;;;;4979742;28;20529;-45
2022/11/25 14:24:51;;;;;;;9.50;3.30;;;;;;;;;;4975051;28;20417;-45
2022/11/25 14:27:19;;;;;;;16.13;3.30;;;;;;;;;;4988374;28;20468;-44
2022/11/25 14:29:51;;;;;;;5.70;2.97;;;;;;;;;;4984606;28;20612;-44
2022/11/25 14:32:17;;;;;;;9.68;3.50;;;;;;;;;;4991752;28;20463;-45
2022/11/25 14:34:46;;;;;;;6.90;2.83;;;;;;;;;;4972160;28;20187;-44
2022/11/25 14:37:32;;;;;;;9.43;3.03;;;;;;;;;;4980835;28;20517;-45
2022/11/25 14:40:02;;;;;;;13.00;3.50;;;;;;;;;;4974116;28;20429;-45
2022/11/25 14:42:32;;;;;;;10.10;3.47;;;;;;;;;;4980806;28;20460;-45
2022/11/25 14:44:58;;;;;;;10.37;3.00;;;;;;;;;;4985288;28;20406;-47
2022/11/25 14:47:25;;;;;;;5.30;3.33;;;;;;;;;;4982851;28;20496;-46
2022/11/25 14:49:53;;;;;;;6.93;2.60;;;;;;;;;;4987038;28;20414;-47
2022/11/25 14:52:21;;;;;;;5.50;2.67;;;;;;;;;;4984607;28;20421;-46
2022/11/25 14:54:48;;;;;;;8.47;3.20;;;;;;;;;;4979710;28;20481;-46
2022/11/25 14:57:18;;;;;;;13.03;2.97;;;;;;;;;;4987189;28;20436;-47
2022/11/25 14:59:44;;;;;;;9.97;3.00;;;;;;;;;;4984245;28;20422;-46
2022/11/25 15:02:22;;;;;;;5.97;2.93;;;;;;;;;;4984567;28;20472;-48
2022/11/25 15:04:48;;;;;;;9.13;3.50;;;;;;;;;;4983553;28;20408;-44
2022/11/25 15:07:21;;;;;;;10.37;3.13;;;;;;;;;;4982731;28;20560;-46